Time;durP1;ratioP1;P1;durP2;ratioP2;P2;SDS_P1;SDS_P2;PMS_P1;PMS_P2;Temp;Humidity;BMP_temperature;BMP_pressure;BME280_temperature;BME280_humidity;BME280_pressure;Samples;Min_cycle;Max_cycle;Signal;HPM_P1;HPM_P2
2023/04/17 00:01:54;;;;;;;12.53;6.03;;;;;;;;;;5064898;28;20227;-57
2023/04/17 00:04:21;;;;;;;9.27;5.87;;;;;;;;;;5067674;28;20250;-57
2023/04/17 00:06:48;;;;;;;6.27;4.50;;;;;;;;;;5047809;28;20219;-56
2023/04/17 00:09:16;;;;;;;9.27;5.13;;;;;;;;;;5052056;28;20227;-57
2023/04/17 00:11:44;;;;;;;5.73;5.23;;;;;;;;;;5047666;28;20654;-57
2023/04/17 00:14:11;;;;;;;9.43;5.60;;;;;;;;;;5047734;28;20215;-57
2023/04/17 00:16:38;;;;;;;10.53;6.30;;;;;;;;;;5052339;28;20212;-58
2023/04/17 00:19:05;;;;;;;6.93;5.20;;;;;;;;;;5066714;28;20700;-57
2023/04/17 00:21:32;;;;;;;7.83;5.40;;;;;;;;;;5067586;28;20250;-57
2023/04/17 00:23:59;;;;;;;4.07;3.07;;;;;;;;;;5066449;28;20214;-58
2023/04/17 00:26:26;;;;;;;8.93;6.07;;;;;;;;;;5067290;28;20211;-57
2023/04/17 00:28:55;;;;;;;7.17;5.37;;;;;;;;;;5054374;28;20309;-57
2023/04/17 00:31:22;;;;;;;8.27;5.53;;;;;;;;;;5047240;28;20204;-57
2023/04/17 00:33:49;;;;;;;9.10;5.17;;;;;;;;;;5047466;28;20200;-57
2023/04/17 00:36:16;;;;;;;7.73;5.27;;;;;;;;;;5047239;28;20208;-57
2023/04/17 00:38:43;;;;;;;10.60;6.57;;;;;;;;;;5060611;28;20674;-57
2023/04/17 00:41:10;;;;;;;7.07;4.17;;;;;;;;;;5049621;28;20207;-57
2023/04/17 00:43:37;;;;;;;5.10;3.70;;;;;;;;;;5047640;28;20224;-57
2023/04/17 00:46:06;;;;;;;11.87;5.43;;;;;;;;;;5048915;28;20207;-57
2023/04/17 00:48:33;;;;;;;8.50;5.87;;;;;;;;;;5066016;28;20211;-57
2023/04/17 00:51:01;;;;;;;7.43;4.73;;;;;;;;;;5063325;28;20226;-57
2023/04/17 00:53:28;;;;;;;10.27;6.47;;;;;;;;;;5048635;28;20207;-57
2023/04/17 00:55:55;;;;;;;8.80;6.13;;;;;;;;;;5063309;28;20227;-57
2023/04/17 00:58:22;;;;;;;9.73;5.27;;;;;;;;;;5055965;28;20218;-58
2023/04/17 01:00:50;;;;;;;9.87;5.93;;;;;;;;;;5068181;28;20218;-57
2023/04/17 01:03:18;;;;;;;11.13;6.30;;;;;;;;;;5067299;28;20234;-58
2023/04/17 01:05:48;;;;;;;9.10;6.00;;;;;;;;;;5066974;28;20203;-58
2023/04/17 01:08:15;;;;;;;9.73;6.03;;;;;;;;;;5069280;28;20215;-57
2023/04/17 01:10:42;;;;;;;13.10;7.00;;;;;;;;;;5063562;28;20615;-57
2023/04/17 01:13:09;;;;;;;9.27;5.97;;;;;;;;;;5051068;28;20204;-57
2023/04/17 01:15:37;;;;;;;9.10;6.17;;;;;;;;;;5050879;28;20217;-57
2023/04/17 01:18:04;;;;;;;13.30;7.17;;;;;;;;;;5055886;28;20264;-57
2023/04/17 01:20:33;;;;;;;9.90;6.23;;;;;;;;;;5069239;28;20303;-57
2023/04/17 01:23:01;;;;;;;9.07;6.03;;;;;;;;;;5069098;28;20219;-56
2023/04/17 01:25:29;;;;;;;8.87;5.97;;;;;;;;;;5067904;28;20642;-57
2023/04/17 01:27:56;;;;;;;9.50;6.20;;;;;;;;;;5059059;28;20207;-57
2023/04/17 01:30:23;;;;;;;12.80;7.10;;;;;;;;;;5056580;28;20294;-57
2023/04/17 01:32:50;;;;;;;11.20;6.80;;;;;;;;;;5051625;28;20249;-57
2023/04/17 01:35:17;;;;;;;9.97;5.87;;;;;;;;;;5062515;28;20214;-57
2023/04/17 01:37:44;;;;;;;10.80;6.43;;;;;;;;;;5050364;28;20575;-57
2023/04/17 01:40:12;;;;;;;10.50;6.30;;;;;;;;;;5050303;28;20271;-56
2023/04/17 01:42:40;;;;;;;13.60;7.07;;;;;;;;;;5050236;28;20638;-57
2023/04/17 01:45:08;;;;;;;8.30;6.30;;;;;;;;;;5049967;28;20599;-57
2023/04/17 01:47:35;;;;;;;13.03;6.70;;;;;;;;;;5052222;28;20617;-57
2023/04/17 01:50:02;;;;;;;8.80;5.73;;;;;;;;;;5049987;28;20287;-57
2023/04/17 01:52:30;;;;;;;13.13;6.03;;;;;;;;;;5055522;28;20203;-58
2023/04/17 01:54:57;;;;;;;11.63;7.27;;;;;;;;;;5067746;28;20606;-57
2023/04/17 01:57:24;;;;;;;12.80;6.93;;;;;;;;;;5064353;28;20200;-56
2023/04/17 01:59:52;;;;;;;9.23;6.73;;;;;;;;;;5054734;28;20222;-60
2023/04/17 02:02:19;;;;;;;11.87;6.83;;;;;;;;;;5058123;28;20281;-56
2023/04/17 02:04:46;;;;;;;12.23;7.07;;;;;;;;;;5069068;28;20222;-57
2023/04/17 02:07:13;;;;;;;11.13;7.23;;;;;;;;;;5069088;28;20199;-57
2023/04/17 02:09:40;;;;;;;11.63;7.00;;;;;;;;;;5067720;28;20203;-56
2023/04/17 02:12:07;;;;;;;12.63;7.33;;;;;;;;;;5069250;28;20199;-57
2023/04/17 02:14:34;;;;;;;11.77;6.93;;;;;;;;;;5068208;28;20206;-57
2023/04/17 02:17:03;;;;;;;9.07;6.07;;;;;;;;;;5062892;28;20226;-57
2023/04/17 02:19:30;;;;;;;9.87;5.30;;;;;;;;;;5054475;28;20643;-57
2023/04/17 02:21:57;;;;;;;8.93;5.83;;;;;;;;;;5068185;28;20230;-57
2023/04/17 02:24:24;;;;;;;9.60;5.97;;;;;;;;;;5049414;28;20209;-57
2023/04/17 02:26:51;;;;;;;11.90;5.57;;;;;;;;;;5055887;28;20207;-57
2023/04/17 02:29:18;;;;;;;7.70;5.23;;;;;;;;;;5048026;28;20211;-57
2023/04/17 02:31:45;;;;;;;8.63;6.10;;;;;;;;;;5049209;28;20211;-57
2023/04/17 02:34:13;;;;;;;10.93;6.27;;;;;;;;;;5048475;28;20214;-56
2023/04/17 02:36:40;;;;;;;6.83;4.93;;;;;;;;;;5048730;28;20204;-56
2023/04/17 02:39:07;;;;;;;10.23;6.13;;;;;;;;;;5048476;28;20246;-57
2023/04/17 02:41:34;;;;;;;8.47;6.00;;;;;;;;;;5049016;28;20204;-56
2023/04/17 02:44:01;;;;;;;13.80;6.90;;;;;;;;;;5048683;28;20234;-57
2023/04/17 02:46:28;;;;;;;8.90;6.03;;;;;;;;;;5048890;28;20298;-57
2023/04/17 02:48:55;;;;;;;9.50;6.43;;;;;;;;;;5053171;28;20202;-56
2023/04/17 02:51:25;;;;;;;10.60;6.37;;;;;;;;;;5057205;28;20217;-57
2023/04/17 02:53:52;;;;;;;11.93;6.23;;;;;;;;;;5053275;28;20218;-57
2023/04/17 02:56:19;;;;;;;8.23;5.63;;;;;;;;;;5048767;28;20698;-57
2023/04/17 02:58:46;;;;;;;9.47;5.70;;;;;;;;;;5065354;28;20211;-57
2023/04/17 03:01:13;;;;;;;9.60;5.77;;;;;;;;;;5050225;28;20219;-57
2023/04/17 03:03:41;;;;;;;9.37;5.80;;;;;;;;;;5060270;28;20749;-57
2023/04/17 03:06:09;;;;;;;8.63;6.13;;;;;;;;;;5068016;28;20207;-57
2023/04/17 03:08:38;;;;;;;8.77;6.00;;;;;;;;;;5067580;28;20227;-57
2023/04/17 03:11:05;;;;;;;7.27;5.17;;;;;;;;;;5067081;28;20218;-57
2023/04/17 03:13:33;;;;;;;6.77;5.73;;;;;;;;;;5057095;28;20286;-57
2023/04/17 03:16:01;;;;;;;10.97;5.83;;;;;;;;;;5048536;28;20200;-56
2023/04/17 03:18:28;;;;;;;8.50;5.27;;;;;;;;;;5062187;28;20235;-56
2023/04/17 03:20:55;;;;;;;10.30;5.37;;;;;;;;;;5053739;28;20607;-57
2023/04/17 03:23:22;;;;;;;8.80;6.20;;;;;;;;;;5063973;28;20242;-57
2023/04/17 03:25:50;;;;;;;8.33;4.97;;;;;;;;;;5062987;28;20310;-57
2023/04/17 03:28:18;;;;;;;9.33;5.93;;;;;;;;;;5048202;28;20208;-57
2023/04/17 03:30:45;;;;;;;8.80;6.13;;;;;;;;;;5051925;28;20227;-57
2023/04/17 03:33:12;;;;;;;10.27;6.33;;;;;;;;;;5048547;28;20203;-57
2023/04/17 03:35:39;;;;;;;8.33;5.20;;;;;;;;;;5048355;28;20227;-57
2023/04/17 03:38:06;;;;;;;9.63;6.43;;;;;;;;;;5051610;28;20211;-57
2023/04/17 03:40:33;;;;;;;12.90;5.60;;;;;;;;;;5048061;28;20243;-56
2023/04/17 03:43:02;;;;;;;10.53;6.20;;;;;;;;;;5048804;28;20315;-57
2023/04/17 03:45:29;;;;;;;11.40;5.73;;;;;;;;;;5052183;28;20203;-57
2023/04/17 03:47:56;;;;;;;13.83;5.87;;;;;;;;;;5062218;28;20204;-56
2023/04/17 03:50:23;;;;;;;7.17;5.57;;;;;;;;;;5052980;28;20210;-57
2023/04/17 03:52:50;;;;;;;11.50;6.30;;;;;;;;;;5054577;28;20196;-57
2023/04/17 03:55:18;;;;;;;12.00;6.20;;;;;;;;;;5063618;28;20215;-56
2023/04/17 03:57:47;;;;;;;8.80;5.97;;;;;;;;;;5050124;28;20729;-57
2023/04/17 04:00:16;;;;;;;8.90;5.77;;;;;;;;;;5049160;28;20218;-56
2023/04/17 04:02:43;;;;;;;9.40;6.20;;;;;;;;;;5059625;28;20741;-57
2023/04/17 04:05:10;;;;;;;8.90;5.80;;;;;;;;;;5059704;28;20230;-57
2023/04/17 04:07:37;;;;;;;8.77;6.20;;;;;;;;;;5056318;28;20697;-56
2023/04/17 04:10:04;;;;;;;8.53;5.90;;;;;;;;;;5068001;28;20211;-57
2023/04/17 04:12:31;;;;;;;8.63;6.13;;;;;;;;;;5066568;28;20635;-57
2023/04/17 04:14:58;;;;;;;8.70;6.53;;;;;;;;;;5067113;28;20313;-57
2023/04/17 04:17:27;;;;;;;10.33;6.07;;;;;;;;;;5065863;28;20264;-57
2023/04/17 04:19:54;;;;;;;8.97;6.30;;;;;;;;;;5067744;28;20214;-57
2023/04/17 04:22:21;;;;;;;14.73;6.13;;;;;;;;;;5066547;28;20227;-57
2023/04/17 04:24:48;;;;;;;8.07;6.17;;;;;;;;;;5058603;28;20213;-57
2023/04/17 04:27:16;;;;;;;7.90;5.47;;;;;;;;;;5065838;28;20754;-57
2023/04/17 04:29:47;;;;;;;8.70;6.03;;;;;;;;;;5058202;28;20738;-58
2023/04/17 04:32:14;;;;;;;8.73;5.43;;;;;;;;;;5048639;28;20204;-57
2023/04/17 04:34:43;;;;;;;9.03;6.07;;;;;;;;;;5068830;28;20217;-57
2023/04/17 04:37:14;;;;;;;8.90;6.17;;;;;;;;;;5068207;28;20238;-57
2023/04/17 04:39:41;;;;;;;10.90;6.17;;;;;;;;;;5065802;28;20259;-57
2023/04/17 04:42:09;;;;;;;12.83;6.50;;;;;;;;;;5051149;28;20245;-57
2023/04/17 04:44:36;;;;;;;10.03;6.27;;;;;;;;;;5054002;28;20227;-58
2023/04/17 04:47:03;;;;;;;11.90;6.23;;;;;;;;;;5060653;28;20638;-57
2023/04/17 04:49:30;;;;;;;11.50;6.67;;;;;;;;;;5070997;28;20777;-57
2023/04/17 04:51:58;;;;;;;9.33;6.07;;;;;;;;;;5059364;28;20211;-57
2023/04/17 04:54:25;;;;;;;14.63;6.57;;;;;;;;;;5051118;28;20204;-57
2023/04/17 04:56:53;;;;;;;11.40;6.47;;;;;;;;;;5055834;28;20800;-57
2023/04/17 04:59:20;;;;;;;9.70;5.77;;;;;;;;;;5056799;28;20713;-57
2023/04/17 05:01:47;;;;;;;8.03;5.37;;;;;;;;;;5058471;28;20203;-57
2023/04/17 05:04:14;;;;;;;9.10;5.93;;;;;;;;;;5070568;28;20230;-56
2023/04/17 05:06:41;;;;;;;8.50;6.00;;;;;;;;;;5062728;28;20224;-57
2023/04/17 05:09:09;;;;;;;8.40;6.00;;;;;;;;;;5050596;28;20306;-57
2023/04/17 05:11:36;;;;;;;13.17;5.67;;;;;;;;;;5050600;28;20670;-57
2023/04/17 05:14:04;;;;;;;8.53;5.77;;;;;;;;;;5053833;28;20286;-57
2023/04/17 05:16:31;;;;;;;9.37;5.90;;;;;;;;;;5063834;28;20203;-57
2023/04/17 05:18:59;;;;;;;6.23;5.23;;;;;;;;;;5068548;28;20207;-57
2023/04/17 05:21:26;;;;;;;8.77;5.50;;;;;;;;;;5052511;28;20204;-57
2023/04/17 05:23:53;;;;;;;10.87;6.43;;;;;;;;;;5052094;28;20322;-57
2023/04/17 05:26:22;;;;;;;9.50;6.23;;;;;;;;;;5057185;28;20581;-57
2023/04/17 05:28:49;;;;;;;10.20;7.00;;;;;;;;;;5062795;28;20301;-57
2023/04/17 05:31:16;;;;;;;10.50;6.20;;;;;;;;;;5050281;28;20208;-56
2023/04/17 05:33:43;;;;;;;10.53;6.70;;;;;;;;;;5068290;28;20210;-57
2023/04/17 05:36:10;;;;;;;11.50;6.93;;;;;;;;;;5070305;28;20211;-57
2023/04/17 05:38:37;;;;;;;15.37;7.23;;;;;;;;;;5057413;28;20219;-57
2023/04/17 05:41:06;;;;;;;13.00;7.73;;;;;;;;;;5069410;28;20211;-57
2023/04/17 05:43:35;;;;;;;11.03;7.73;;;;;;;;;;5069531;28;20223;-57
2023/04/17 05:46:02;;;;;;;12.97;7.13;;;;;;;;;;5057427;28;20643;-57
2023/04/17 05:48:30;;;;;;;10.10;6.30;;;;;;;;;;5063351;28;20215;-57
2023/04/17 05:50:57;;;;;;;17.20;8.33;;;;;;;;;;5070103;28;20211;-57
2023/04/17 05:53:24;;;;;;;15.13;8.03;;;;;;;;;;5069844;28;20203;-57
2023/04/17 05:55:51;;;;;;;15.80;7.80;;;;;;;;;;5070021;28;20211;-57
2023/04/17 05:58:18;;;;;;;14.33;7.77;;;;;;;;;;5069656;28;20215;-57
2023/04/17 06:00:46;;;;;;;13.13;8.10;;;;;;;;;;5069740;28;20242;-57
2023/04/17 06:03:13;;;;;;;14.17;7.80;;;;;;;;;;5069662;28;20235;-57
2023/04/17 06:05:40;;;;;;;10.80;7.33;;;;;;;;;;5069682;28;20210;-57
2023/04/17 06:08:07;;;;;;;14.67;8.40;;;;;;;;;;5069888;28;20203;-57
2023/04/17 06:10:34;;;;;;;12.60;6.67;;;;;;;;;;5069830;28;20213;-57
2023/04/17 06:13:02;;;;;;;13.27;7.40;;;;;;;;;;5069573;28;20363;-57
2023/04/17 06:15:29;;;;;;;14.67;7.77;;;;;;;;;;5069329;28;20211;-57
2023/04/17 06:17:57;;;;;;;11.73;7.57;;;;;;;;;;5066766;28;20670;-56
2023/04/17 06:20:24;;;;;;;16.10;8.33;;;;;;;;;;5049626;28;20218;-56
2023/04/17 06:22:51;;;;;;;12.00;7.53;;;;;;;;;;5051015;28;20244;-56
2023/04/17 06:25:18;;;;;;;12.73;8.10;;;;;;;;;;5057224;28;20212;-57
2023/04/17 06:27:45;;;;;;;14.00;8.00;;;;;;;;;;5049167;28;20229;-57
2023/04/17 06:30:13;;;;;;;16.67;9.17;;;;;;;;;;5063824;28;20210;-57
2023/04/17 06:32:42;;;;;;;18.60;9.50;;;;;;;;;;5068809;28;20242;-56
2023/04/17 06:35:11;;;;;;;14.03;8.73;;;;;;;;;;5067784;28;20199;-56
2023/04/17 06:37:38;;;;;;;13.47;8.63;;;;;;;;;;5069153;28;20697;-57
2023/04/17 06:40:05;;;;;;;14.93;9.07;;;;;;;;;;5049364;28;20251;-58
2023/04/17 06:42:34;;;;;;;12.90;8.40;;;;;;;;;;5048850;28;20854;-55
2023/04/17 06:45:01;;;;;;;12.50;7.37;;;;;;;;;;5066472;28;20284;-55
2023/04/17 06:47:28;;;;;;;13.87;7.97;;;;;;;;;;5067948;28;20218;-56
2023/04/17 06:49:56;;;;;;;15.13;7.87;;;;;;;;;;5051543;28;20212;-56
2023/04/17 06:52:25;;;;;;;8.43;6.10;;;;;;;;;;5048803;28;20306;-56
2023/04/17 06:54:53;;;;;;;10.93;7.63;;;;;;;;;;5063832;28;20208;-57
2023/04/17 06:57:20;;;;;;;9.87;6.50;;;;;;;;;;5068568;28;20229;-57
2023/04/17 06:59:48;;;;;;;10.43;6.07;;;;;;;;;;5066693;28;20290;-59
2023/04/17 07:02:15;;;;;;;9.40;6.27;;;;;;;;;;5057653;28;20215;-57
2023/04/17 07:04:42;;;;;;;7.63;5.50;;;;;;;;;;5066580;28;20226;-57
2023/04/17 07:07:09;;;;;;;7.43;4.10;;;;;;;;;;5068264;28;20290;-57
2023/04/17 07:09:37;;;;;;;7.90;5.40;;;;;;;;;;5068729;28;20203;-57
2023/04/17 07:12:04;;;;;;;8.30;5.27;;;;;;;;;;5068629;28;20582;-57
2023/04/17 07:14:32;;;;;;;7.47;4.87;;;;;;;;;;5068240;28;20211;-57
2023/04/17 07:16:59;;;;;;;5.73;4.47;;;;;;;;;;5061169;28;20211;-57
2023/04/17 07:19:26;;;;;;;11.53;6.37;;;;;;;;;;5056894;28;20309;-57
2023/04/17 07:21:53;;;;;;;8.50;5.70;;;;;;;;;;5048227;28;20211;-57
2023/04/17 07:24:20;;;;;;;6.03;4.03;;;;;;;;;;5047944;28;20235;-57
2023/04/17 07:26:49;;;;;;;8.13;5.60;;;;;;;;;;5059974;28;20203;-58
2023/04/17 07:29:16;;;;;;;5.93;3.53;;;;;;;;;;5068051;28;20280;-57
2023/04/17 07:31:44;;;;;;;9.43;6.07;;;;;;;;;;5068090;28;20211;-57
2023/04/17 07:34:11;;;;;;;9.70;6.23;;;;;;;;;;5068280;28;20613;-57
2023/04/17 07:36:38;;;;;;;10.93;5.83;;;;;;;;;;5059499;28;20830;-57
2023/04/17 07:39:06;;;;;;;8.47;5.93;;;;;;;;;;5060283;28;20304;-56
2023/04/17 07:41:33;;;;;;;4.80;3.00;;;;;;;;;;5054608;28;20475;-56
2023/04/17 07:44:04;;;;;;;9.80;5.87;;;;;;;;;;5048539;28;20227;-58
2023/04/17 07:46:31;;;;;;;7.77;5.23;;;;;;;;;;5062239;28;20237;-58
2023/04/17 07:48:58;;;;;;;9.17;5.43;;;;;;;;;;5054317;28;20200;-58
2023/04/17 07:51:26;;;;;;;8.00;5.20;;;;;;;;;;5059428;28;20269;-60
2023/04/17 07:53:53;;;;;;;8.80;5.10;;;;;;;;;;5058433;28;20261;-58
2023/04/17 07:56:20;;;;;;;5.90;5.30;;;;;;;;;;5049025;28;20218;-59
2023/04/17 07:58:50;;;;;;;8.07;4.83;;;;;;;;;;5062961;28;20227;-59
2023/04/17 08:01:19;;;;;;;7.20;5.07;;;;;;;;;;5058054;28;20230;-57
2023/04/17 08:03:47;;;;;;;7.47;4.00;;;;;;;;;;5050692;28;20810;-57
2023/04/17 08:06:14;;;;;;;9.70;5.33;;;;;;;;;;5067610;28;20211;-58
2023/04/17 08:08:46;;;;;;;2.30;2.10;;;;;;;;;;5051003;28;20656;-57
2023/04/17 08:11:13;;;;;;;6.63;5.10;;;;;;;;;;5053677;28;20207;-58
2023/04/17 08:13:40;;;;;;;7.53;5.40;;;;;;;;;;5060322;28;20204;-58
2023/04/17 08:16:07;;;;;;;8.20;4.43;;;;;;;;;;5052118;28;20681;-58
2023/04/17 08:18:37;;;;;;;7.37;5.33;;;;;;;;;;5058325;28;20222;-58
2023/04/17 08:21:05;;;;;;;7.67;4.00;;;;;;;;;;5050810;28;20633;-58
2023/04/17 08:23:32;;;;;;;5.63;4.53;;;;;;;;;;5053547;28;20722;-58
2023/04/17 08:25:59;;;;;;;11.80;5.93;;;;;;;;;;5064188;28;20203;-58
2023/04/17 08:28:26;;;;;;;9.53;5.30;;;;;;;;;;5067705;28;20218;-58
2023/04/17 08:30:53;;;;;;;7.60;4.83;;;;;;;;;;5067749;28;20533;-57
2023/04/17 08:33:20;;;;;;;8.80;5.80;;;;;;;;;;5067599;28;20206;-58
2023/04/17 08:35:49;;;;;;;9.00;5.20;;;;;;;;;;5059820;28;20207;-58
2023/04/17 08:38:16;;;;;;;11.10;4.77;;;;;;;;;;5067302;28;20207;-58
2023/04/17 08:40:45;;;;;;;4.93;3.60;;;;;;;;;;5054275;28;20654;-58
2023/04/17 08:43:14;;;;;;;9.43;5.30;;;;;;;;;;5067207;28;20207;-58
2023/04/17 08:45:44;;;;;;;6.17;5.03;;;;;;;;;;5050686;28;20232;-57
2023/04/17 08:48:12;;;;;;;12.23;5.60;;;;;;;;;;5049495;28;20216;-57
2023/04/17 08:50:41;;;;;;;8.33;5.10;;;;;;;;;;5067290;28;20203;-57
2023/04/17 08:53:10;;;;;;;6.57;2.17;;;;;;;;;;5067345;28;20283;-57
2023/04/17 08:55:37;;;;;;;8.90;4.30;;;;;;;;;;5047676;28;20204;-57
2023/04/17 08:58:05;;;;;;;8.07;5.70;;;;;;;;;;5046122;28;20207;-58
2023/04/17 09:00:33;;;;;;;7.57;5.90;;;;;;;;;;5045202;28;20218;-57
2023/04/17 09:03:01;;;;;;;5.30;2.77;;;;;;;;;;5054620;28;20226;-57
2023/04/17 09:05:32;;;;;;;7.43;5.30;;;;;;;;;;5064848;28;20261;-58
2023/04/17 09:08:07;;;;;;;9.40;5.30;;;;;;;;;;5055123;28;20286;-58
2023/04/17 09:10:39;;;;;;;8.03;5.33;;;;;;;;;;5056944;28;20657;-57
2023/04/17 09:13:07;;;;;;;4.87;3.50;;;;;;;;;;5060986;28;20211;-58
2023/04/17 09:15:34;;;;;;;10.60;6.10;;;;;;;;;;5063319;28;20206;-57
2023/04/17 09:18:01;;;;;;;11.30;5.97;;;;;;;;;;5064399;28;20203;-57
2023/04/17 09:20:28;;;;;;;8.23;5.30;;;;;;;;;;5069117;28;20210;-57
2023/04/17 09:22:59;;;;;;;7.73;5.50;;;;;;;;;;5070212;28;20242;-57
2023/04/17 09:25:27;;;;;;;4.70;3.93;;;;;;;;;;5070349;28;20226;-57
2023/04/17 09:27:55;;;;;;;6.80;4.80;;;;;;;;;;5070465;28;20268;-58
2023/04/17 09:30:25;;;;;;;6.93;4.43;;;;;;;;;;5070341;28;20677;-57
2023/04/17 09:33:02;;;;;;;3.27;2.87;;;;;;;;;;5070248;28;20222;-57
2023/04/17 09:35:30;;;;;;;6.43;5.00;;;;;;;;;;5070229;28;20207;-57
2023/04/17 09:37:58;;;;;;;5.30;4.27;;;;;;;;;;5070227;28;20218;-57
2023/04/17 09:40:26;;;;;;;9.10;5.30;;;;;;;;;;5069998;28;20342;-58
2023/04/17 09:42:56;;;;;;;8.20;4.83;;;;;;;;;;5069875;28;20214;-58
2023/04/17 09:45:23;;;;;;;5.40;4.10;;;;;;;;;;5069350;28;20231;-58
2023/04/17 09:47:51;;;;;;;7.67;5.20;;;;;;;;;;5070142;28;20211;-58
2023/04/17 09:50:21;;;;;;;7.47;5.10;;;;;;;;;;5070117;28;20515;-58
2023/04/17 09:52:49;;;;;;;8.07;5.17;;;;;;;;;;5069488;28;20238;-58
2023/04/17 09:55:16;;;;;;;10.77;6.03;;;;;;;;;;5069952;28;20827;-58
2023/04/17 09:57:43;;;;;;;7.73;4.63;;;;;;;;;;5069763;28;20665;-58
2023/04/17 10:00:13;;;;;;;6.40;4.60;;;;;;;;;;5068863;28;20677;-58
2023/04/17 10:02:42;;;;;;;5.63;3.80;;;;;;;;;;5069610;28;20226;-58
2023/04/17 10:05:11;;;;;;;7.90;4.60;;;;;;;;;;5069560;28;20242;-58
2023/04/17 10:07:39;;;;;;;8.83;5.20;;;;;;;;;;5069444;28;20682;-58
2023/04/17 10:10:08;;;;;;;8.43;4.57;;;;;;;;;;5069380;28;20211;-58
2023/04/17 10:12:36;;;;;;;5.13;3.53;;;;;;;;;;5069339;28;20207;-58
2023/04/17 10:15:03;;;;;;;6.67;4.30;;;;;;;;;;5069146;28;20238;-58
2023/04/17 10:17:33;;;;;;;5.23;4.00;;;;;;;;;;5069434;28;20211;-58
2023/04/17 10:20:16;;;;;;;7.53;5.20;;;;;;;;;;5069480;28;20211;-58
2023/04/17 10:22:44;;;;;;;8.87;4.57;;;;;;;;;;5069103;28;20239;-58
2023/04/17 10:25:21;;;;;;;16.07;5.20;;;;;;;;;;5069200;28;20234;-58
2023/04/17 10:27:49;;;;;;;7.17;3.60;;;;;;;;;;5069316;28;20615;-58
2023/04/17 10:30:17;;;;;;;2.07;1.97;;;;;;;;;;5067846;28;20203;-58
2023/04/17 10:32:47;;;;;;;4.27;3.90;;;;;;;;;;5069002;28;20232;-58
2023/04/17 10:35:32;;;;;;;6.27;4.00;;;;;;;;;;5069010;28;20206;-58
2023/04/17 10:38:03;;;;;;;5.23;4.17;;;;;;;;;;5068899;28;20684;-58
2023/04/17 10:40:30;;;;;;;11.67;4.90;;;;;;;;;;5068768;28;20246;-58
2023/04/17 10:43:05;;;;;;;4.83;4.03;;;;;;;;;;5068984;28;20247;-58
2023/04/17 10:45:51;;;;;;;4.60;3.70;;;;;;;;;;5068452;28;20716;-58
2023/04/17 10:48:26;;;;;;;2.17;1.87;;;;;;;;;;5068792;28;20203;-58
2023/04/17 10:50:53;;;;;;;7.17;3.97;;;;;;;;;;5068705;28;20217;-58
2023/04/17 10:53:37;;;;;;;3.30;3.00;;;;;;;;;;5068766;28;20218;-58
2023/04/17 10:56:04;;;;;;;3.60;2.50;;;;;;;;;;5067831;28;20210;-58
2023/04/17 10:58:31;;;;;;;3.07;2.70;;;;;;;;;;5068428;28;20230;-59
2023/04/17 11:01:02;;;;;;;3.80;2.40;;;;;;;;;;5068304;28;20637;-58
2023/04/17 11:03:31;;;;;;;1.80;1.70;;;;;;;;;;5068452;28;20296;-58
2023/04/17 11:05:59;;;;;;;1.30;1.20;;;;;;;;;;5068301;28;20245;-58
2023/04/17 11:08:26;;;;;;;3.10;2.43;;;;;;;;;;5067512;28;20203;-58
2023/04/17 11:10:53;;;;;;;5.40;1.40;;;;;;;;;;5068219;28;20670;-58
2023/04/17 11:13:20;;;;;;;1.10;1.10;;;;;;;;;;5068206;28;20238;-58
2023/04/17 11:15:48;;;;;;;0.50;0.50;;;;;;;;;;5068248;28;20276;-58
2023/04/17 11:18:15;;;;;;;3.03;1.13;;;;;;;;;;5068501;28;20215;-58
2023/04/17 11:20:44;;;;;;;0.63;0.63;;;;;;;;;;5068354;28;20211;-58
2023/04/17 11:23:11;;;;;;;3.70;0.70;;;;;;;;;;5067387;28;20337;-58
2023/04/17 11:25:40;;;;;;;0.90;0.90;;;;;;;;;;5067723;28;20237;-58
2023/04/17 11:28:07;;;;;;;1.83;1.70;;;;;;;;;;5067667;28;20219;-58
2023/04/17 11:30:35;;;;;;;1.37;1.27;;;;;;;;;;5067754;28;20230;-58
2023/04/17 11:33:03;;;;;;;2.17;2.07;;;;;;;;;;5067731;28;20221;-58
2023/04/17 11:35:32;;;;;;;1.67;1.63;;;;;;;;;;5067695;28;20229;-58
2023/04/17 11:38:11;;;;;;;1.63;1.37;;;;;;;;;;5067626;28;20697;-58
2023/04/17 11:40:42;;;;;;;2.60;2.10;;;;;;;;;;5064303;28;20242;-58
2023/04/17 11:43:09;;;;;;;4.33;1.80;;;;;;;;;;5046482;28;20207;-58
2023/04/17 11:45:37;;;;;;;1.67;1.67;;;;;;;;;;5054545;28;20257;-58
2023/04/17 11:48:04;;;;;;;2.00;1.90;;;;;;;;;;5048886;28;20212;-59
2023/04/17 11:50:31;;;;;;;1.90;1.90;;;;;;;;;;5048268;28;20203;-57
2023/04/17 11:53:00;;;;;;;4.87;1.63;;;;;;;;;;5047828;28;20212;-57
2023/04/17 11:55:30;;;;;;;4.23;2.10;;;;;;;;;;5052596;28;20207;-58
2023/04/17 11:57:58;;;;;;;1.20;1.07;;;;;;;;;;5053146;28;20215;-58
2023/04/17 12:00:28;;;;;;;1.90;1.80;;;;;;;;;;5056164;28;20293;-59
2023/04/17 12:02:56;;;;;;;1.73;1.50;;;;;;;;;;5067674;28;20215;-59
2023/04/17 12:05:23;;;;;;;0.53;0.53;;;;;;;;;;5065741;28;20321;-57
2023/04/17 12:07:59;;;;;;;3.17;0.88;;;;;;;;;;5051896;28;20206;-57
2023/04/17 12:10:37;;;;;;;1.03;1.03;;;;;;;;;;5059082;28;20265;-57
2023/04/17 12:13:04;;;;;;;1.77;1.07;;;;;;;;;;5063321;28;20225;-57
2023/04/17 12:15:31;;;;;;;0.40;0.40;;;;;;;;;;5067462;28;20215;-57
2023/04/17 12:17:58;;;;;;;0.80;0.80;;;;;;;;;;5066472;28;20211;-57
2023/04/17 12:20:25;;;;;;;2.10;0.90;;;;;;;;;;5050557;28;20206;-57
2023/04/17 12:22:52;;;;;;;0.60;0.60;;;;;;;;;;5047386;28;20231;-58
2023/04/17 12:25:19;;;;;;;0.77;0.77;;;;;;;;;;5058016;28;20230;-58
2023/04/17 12:27:48;;;;;;;2.00;0.77;;;;;;;;;;5067683;28;20207;-59
2023/04/17 12:30:15;;;;;;;0.83;0.80;;;;;;;;;;5067451;28;20217;-58
2023/04/17 12:32:47;;;;;;;0.83;0.83;;;;;;;;;;5047127;28;20231;-58
2023/04/17 12:35:14;;;;;;;1.10;1.10;;;;;;;;;;5047531;28;20631;-58
2023/04/17 12:37:41;;;;;;;1.43;1.37;;;;;;;;;;5047332;28;20211;-58
2023/04/17 12:40:09;;;;;;;1.00;0.87;;;;;;;;;;5047077;28;20239;-58
2023/04/17 12:42:36;;;;;;;1.17;0.77;;;;;;;;;;5047912;28;20203;-58
2023/04/17 12:45:05;;;;;;;0.80;0.80;;;;;;;;;;5057350;28;20204;-58
2023/04/17 12:47:32;;;;;;;2.53;1.00;;;;;;;;;;5066499;28;20214;-58
2023/04/17 12:50:00;;;;;;;0.40;0.40;;;;;;;;;;5063991;28;20771;-59
2023/04/17 12:52:27;;;;;;;1.10;1.10;;;;;;;;;;5066908;28;20229;-58
2023/04/17 12:54:58;;;;;;;0.60;0.60;;;;;;;;;;5069145;28;20260;-58
2023/04/17 12:57:25;;;;;;;1.17;1.17;;;;;;;;;;5070660;28;20310;-58
2023/04/17 12:59:52;;;;;;;0.83;0.83;;;;;;;;;;5070941;28;20229;-58
2023/04/17 13:02:22;;;;;;;1.50;1.40;;;;;;;;;;5071111;28;20596;-58
2023/04/17 13:04:49;;;;;;;1.23;1.13;;;;;;;;;;5070772;28;20256;-58
2023/04/17 13:07:16;;;;;;;1.30;1.17;;;;;;;;;;5070824;28;20609;-59
2023/04/17 13:09:43;;;;;;;1.70;0.87;;;;;;;;;;5070319;28;20682;-58
2023/04/17 13:12:11;;;;;;;0.90;0.90;;;;;;;;;;5070788;28;20218;-57
2023/04/17 13:14:38;;;;;;;0.63;0.63;;;;;;;;;;5061100;28;20202;-59
2023/04/17 13:17:06;;;;;;;0.87;0.87;;;;;;;;;;5058028;28;20235;-58
2023/04/17 13:19:34;;;;;;;1.83;1.37;;;;;;;;;;5066868;28;20590;-58
2023/04/17 13:22:02;;;;;;;1.30;1.20;;;;;;;;;;5050329;28;20203;-58
2023/04/17 13:24:29;;;;;;;0.63;0.63;;;;;;;;;;5062626;28;20213;-59
2023/04/17 13:26:57;;;;;;;3.30;0.30;;;;;;;;;;5067798;28;20238;-59
2023/04/17 13:29:24;;;;;;;1.20;1.20;;;;;;;;;;5047773;28;20216;-58
2023/04/17 13:31:51;;;;;;;2.37;1.10;;;;;;;;;;5048268;28;20212;-58
2023/04/17 13:34:19;;;;;;;1.30;1.10;;;;;;;;;;5049372;28;20221;-58
2023/04/17 13:36:47;;;;;;;0.70;0.70;;;;;;;;;;5057933;28;20261;-58
2023/04/17 13:39:14;;;;;;;1.20;1.20;;;;;;;;;;5069867;28;20580;-58
2023/04/17 13:41:41;;;;;;;1.13;1.10;;;;;;;;;;5069594;28;20199;-58
2023/04/17 13:44:09;;;;;;;1.20;1.20;;;;;;;;;;5062470;28;20634;-57
2023/04/17 13:46:36;;;;;;;1.40;1.30;;;;;;;;;;5068937;28;20254;-57
2023/04/17 13:49:03;;;;;;;2.77;1.27;;;;;;;;;;5063683;28;20257;-57
2023/04/17 13:51:30;;;;;;;1.20;1.20;;;;;;;;;;5049919;28;20212;-58
2023/04/17 13:53:58;;;;;;;1.77;1.50;;;;;;;;;;5061973;28;20308;-58
2023/04/17 13:56:26;;;;;;;1.25;1.25;;;;;;;;;;5069827;28;20211;-58
2023/04/17 13:58:53;;;;;;;0.55;0.55;;;;;;;;;;5068921;28;20294;-58
2023/04/17 14:01:20;;;;;;;1.20;1.20;;;;;;;;;;5063154;28;20207;-58
2023/04/17 14:03:47;;;;;;;1.47;1.40;;;;;;;;;;5068285;28;20215;-57
2023/04/17 14:06:17;;;;;;;1.30;1.30;;;;;;;;;;5066587;28;20732;-57
2023/04/17 14:08:44;;;;;;;1.88;1.27;;;;;;;;;;5068729;28;20710;-57
2023/04/17 14:11:13;;;;;;;0.50;0.50;;;;;;;;;;5061805;28;20282;-57
2023/04/17 14:13:40;;;;;;;1.20;1.20;;;;;;;;;;5057890;28;20206;-58
2023/04/17 14:16:07;;;;;;;1.10;1.10;;;;;;;;;;5065017;28;20199;-58
2023/04/17 14:18:34;;;;;;;1.00;1.00;;;;;;;;;;5065490;28;20207;-58
2023/04/17 14:21:01;;;;;;;0.70;0.70;;;;;;;;;;5054855;28;20212;-58
2023/04/17 14:23:28;;;;;;;1.70;1.60;;;;;;;;;;5059209;28;20602;-58
2023/04/17 14:25:55;;;;;;;1.00;1.00;;;;;;;;;;5066935;28;20230;-58
2023/04/17 14:28:24;;;;;;;1.80;1.23;;;;;;;;;;5068097;28;20214;-58
2023/04/17 14:30:51;;;;;;;1.50;1.40;;;;;;;;;;5066126;28;20209;-59
2023/04/17 14:33:18;;;;;;;1.20;1.20;;;;;;;;;;5068330;28;20709;-58
2023/04/17 14:35:45;;;;;;;1.27;1.27;;;;;;;;;;5061547;28;20219;-58
2023/04/17 14:38:12;;;;;;;0.63;0.63;;;;;;;;;;5068631;28;20218;-58
2023/04/17 14:40:39;;;;;;;1.00;1.00;;;;;;;;;;5066553;28;20288;-58
2023/04/17 14:43:06;;;;;;;3.43;1.30;;;;;;;;;;5063062;28;20214;-58
2023/04/17 14:45:36;;;;;;;1.23;1.20;;;;;;;;;;5060154;28;20212;-59